East Ellsworth, Wisconsin
Current Conditions -  °F | °C
As of 9:10 PM on Thursday 18 Dec 2014 (Local Time) from KRGK Reporting Station
Overcast Overcast  
Wind Chill: 23°   Ceiling: 1700
Heat Index: 23°   Visibility: 10mi
Dew Point: 18°   Wind: 0mph
Humidity: 80%   Direction: NA
Pressure: 30.27"   Gusts: NA
Location:  44.73°N, 92.47°W
Report Text: KRGK 190310Z AUTO 00000KT 10SM OVC017 M05/M08 A3027 RMK AO2
Loading
Personal Weather Stations






























Interactive Weather Map New forecast layout! Learn more

10-Day Weather Forecast

Advertisements
Track Severe Weather on mobile